createdAt,value
2019-03-26T00:05:06.743Z,6.47
2019-03-26T00:10:31.939Z,6.33
2019-03-26T00:15:58.074Z,7.37
2019-03-26T00:21:28.285Z,8.37
2019-03-26T00:26:52.658Z,8.60
2019-03-26T00:32:17.972Z,9.17
2019-03-26T00:37:42.160Z,10.10
2019-03-26T00:43:07.865Z,9.50
2019-03-26T00:48:32.235Z,9.60
2019-03-26T00:53:56.450Z,10.97
2019-03-26T00:59:20.571Z,11.43
2019-03-26T01:04:45.104Z,10.47
2019-03-26T01:10:15.908Z,10.87
2019-03-26T01:15:40.460Z,11.47
2019-03-26T01:21:06.249Z,10.63
2019-03-26T01:26:30.814Z,11.33
2019-03-26T01:31:55.604Z,11.03
2019-03-26T01:37:20.400Z,11.83
2019-03-26T01:42:45.880Z,11.87
2019-03-26T01:48:11.019Z,12.83
2019-03-26T01:53:36.964Z,12.87
2019-03-26T01:59:02.619Z,13.93
2019-03-26T02:04:26.743Z,13.43
2019-03-26T02:09:51.936Z,15.20
2019-03-26T02:15:32.311Z,15.03
2019-03-26T02:20:56.861Z,14.23
2019-03-26T02:26:21.041Z,14.67
2019-03-26T02:31:46.821Z,14.77
2019-03-26T02:37:11.411Z,14.67
2019-03-26T02:42:38.072Z,15.67
2019-03-26T02:48:04.068Z,16.40
2019-03-26T02:53:28.778Z,15.73
2019-03-26T02:58:53.626Z,15.90
2019-03-26T03:04:17.908Z,17.57
2019-03-26T03:09:43.362Z,17.30
2019-03-26T03:15:08.629Z,16.80
2019-03-26T03:20:32.896Z,17.33
2019-03-26T03:25:58.369Z,16.73
2019-03-26T03:31:23.674Z,16.17
2019-03-26T03:36:49.169Z,15.67
2019-03-26T03:42:14.373Z,15.00
2019-03-26T03:47:40.313Z,13.63
2019-03-26T03:53:06.603Z,15.00
2019-03-26T03:58:32.763Z,15.73
2019-03-26T04:03:57.134Z,13.57
2019-03-26T04:09:22.390Z,13.07
2019-03-26T04:14:47.399Z,13.00
2019-03-26T04:20:12.688Z,12.10
2019-03-26T04:25:37.890Z,12.47
2019-03-26T04:31:02.437Z,12.10
2019-03-26T04:36:27.935Z,13.23
2019-03-26T04:41:53.726Z,12.83
2019-03-26T04:47:18.707Z,12.87
2019-03-26T04:52:44.206Z,12.20
2019-03-26T04:58:09.656Z,11.30
2019-03-26T05:03:34.120Z,12.47
2019-03-26T05:08:58.559Z,13.20
2019-03-26T05:14:23.823Z,11.63
2019-03-26T05:19:48.986Z,11.07
2019-03-26T05:25:14.792Z,11.43
2019-03-26T05:30:39.536Z,10.83
2019-03-26T05:36:05.033Z,10.50
2019-03-26T05:41:29.987Z,8.77
2019-03-26T05:46:55.216Z,10.77
2019-03-26T05:52:20.247Z,12.37
2019-03-26T05:57:45.464Z,10.73
2019-03-26T06:03:11.019Z,12.77
2019-03-26T06:08:36.052Z,12.70
2019-03-26T06:14:01.066Z,11.00
2019-03-26T06:19:25.666Z,9.83
2019-03-26T06:24:51.213Z,9.43
2019-03-26T06:30:16.320Z,9.13
2019-03-26T06:35:41.129Z,7.27
2019-03-26T06:41:06.313Z,7.90
2019-03-26T06:46:31.675Z,7.57
2019-03-26T06:51:56.366Z,6.83
2019-03-26T06:57:20.834Z,8.00
2019-03-26T07:02:44.990Z,8.00
2019-03-26T07:08:10.232Z,7.23
2019-03-26T07:13:35.180Z,6.33
2019-03-26T07:19:00.361Z,6.67
2019-03-26T07:24:25.034Z,5.93
2019-03-26T07:29:49.982Z,4.80
2019-03-26T07:35:14.971Z,5.20
2019-03-26T07:40:39.841Z,4.27
2019-03-26T07:46:04.736Z,5.10
2019-03-26T07:51:29.340Z,4.40
2019-03-26T07:56:54.620Z,3.83
2019-03-26T08:02:19.888Z,4.33
2019-03-26T08:07:57.477Z,4.93
2019-03-26T08:13:11.430Z,4.10
2019-03-26T08:18:36.822Z,4.63
2019-03-26T08:24:01.478Z,4.43
2019-03-26T08:29:26.398Z,4.80
2019-03-26T08:34:51.025Z,4.10
2019-03-26T08:40:17.316Z,3.20
2019-03-26T08:45:41.826Z,3.20
2019-03-26T08:51:07.705Z,3.07
2019-03-26T08:56:32.101Z,3.43
2019-03-26T09:01:56.284Z,3.47
2019-03-26T09:07:20.638Z,3.10
2019-03-26T09:12:45.989Z,3.37
2019-03-26T09:18:11.155Z,2.97
2019-03-26T09:23:35.473Z,3.60
2019-03-26T09:29:00.904Z,3.00
2019-03-26T09:34:26.493Z,3.23
2019-03-26T09:39:51.194Z,4.43
2019-03-26T09:45:16.537Z,3.57
2019-03-26T09:50:41.656Z,3.57
2019-03-26T09:56:06.186Z,3.80
2019-03-26T10:01:30.969Z,3.10
2019-03-26T10:06:56.137Z,2.47
2019-03-26T10:12:20.703Z,2.80
2019-03-26T10:17:45.890Z,4.13
2019-03-26T10:23:10.059Z,3.87
2019-03-26T10:28:35.094Z,3.87
2019-03-26T10:34:00.902Z,3.10
2019-03-26T10:39:26.068Z,2.70
2019-03-26T10:44:50.323Z,2.63
2019-03-26T10:50:15.293Z,2.70
2019-03-26T10:55:40.795Z,2.90
2019-03-26T11:01:06.212Z,3.83
2019-03-26T11:06:31.600Z,3.70
2019-03-26T11:11:57.134Z,3.57
2019-03-26T11:17:21.959Z,3.57
2019-03-26T11:22:47.394Z,2.73
2019-03-26T11:28:13.978Z,3.43
2019-03-26T11:33:39.538Z,3.03
2019-03-26T11:39:05.465Z,3.07
2019-03-26T11:44:30.846Z,2.50
2019-03-26T11:49:56.090Z,3.87
2019-03-26T11:55:21.964Z,4.80
2019-03-26T12:00:47.363Z,3.37
2019-03-26T12:06:12.349Z,2.93
2019-03-26T12:11:36.772Z,3.07
2019-03-26T12:17:01.537Z,3.17
2019-03-26T12:22:27.197Z,3.50
2019-03-26T12:27:51.346Z,4.07
2019-03-26T12:33:16.706Z,4.73
2019-03-26T12:38:43.026Z,5.20
2019-03-26T12:44:07.411Z,4.70
2019-03-26T12:49:31.836Z,4.63
2019-03-26T12:54:56.002Z,4.40
2019-03-26T13:00:24.237Z,3.90
2019-03-26T13:05:48.709Z,4.00
2019-03-26T13:11:17.098Z,5.10
2019-03-26T13:16:41.574Z,3.43
2019-03-26T13:22:06.621Z,3.30
2019-03-26T13:27:31.981Z,3.90
2019-03-26T13:32:57.487Z,3.37
2019-03-26T13:38:23.865Z,3.33
2019-03-26T13:43:48.898Z,4.03
2019-03-26T13:49:13.757Z,3.67
2019-03-26T13:54:38.913Z,3.27
2019-03-26T14:00:03.913Z,2.70
2019-03-26T14:05:29.467Z,2.80
2019-03-26T14:10:54.126Z,2.30
2019-03-26T14:16:19.231Z,2.40
2019-03-26T14:21:44.224Z,3.33
2019-03-26T14:27:08.553Z,3.97
2019-03-26T14:32:33.635Z,2.80
2019-03-26T14:37:58.149Z,2.70
2019-03-26T14:43:23.376Z,3.00
2019-03-26T14:48:47.741Z,3.53
2019-03-26T14:54:12.844Z,2.50
2019-03-26T14:59:37.860Z,2.67
2019-03-26T15:05:02.070Z,2.83
2019-03-26T15:10:27.432Z,3.33
2019-03-26T15:15:53.138Z,2.77
2019-03-26T15:21:18.327Z,2.83
2019-03-26T15:26:42.575Z,2.00
2019-03-26T15:32:07.958Z,2.17
2019-03-26T15:37:33.219Z,2.40
2019-03-26T15:42:57.671Z,3.10
2019-03-26T15:48:22.173Z,2.43
2019-03-26T15:53:46.560Z,2.30
2019-03-26T15:59:11.267Z,2.33
2019-03-26T16:04:36.155Z,2.90
2019-03-26T16:10:00.503Z,2.50
2019-03-26T16:15:24.843Z,2.70
2019-03-26T16:20:49.849Z,2.33
2019-03-26T16:26:14.726Z,2.60
2019-03-26T16:31:39.668Z,2.27
2019-03-26T16:37:04.108Z,3.00
2019-03-26T16:42:30.579Z,2.60
2019-03-26T16:47:55.420Z,2.90
2019-03-26T16:53:21.948Z,3.00
2019-03-26T16:58:46.731Z,3.07
2019-03-26T17:04:11.143Z,3.00
2019-03-26T17:09:36.498Z,2.73
2019-03-26T17:15:01.532Z,3.03
2019-03-26T17:20:26.036Z,3.60
2019-03-26T17:25:51.110Z,3.23
2019-03-26T17:31:19.063Z,3.07
2019-03-26T17:36:44.641Z,3.00
2019-03-26T17:42:17.090Z,3.00
2019-03-26T17:47:34.875Z,3.10
2019-03-26T17:52:59.151Z,3.07
2019-03-26T17:58:24.093Z,3.37
2019-03-26T18:03:50.456Z,3.00
2019-03-26T18:09:15.340Z,2.97
2019-03-26T18:14:40.947Z,3.30
2019-03-26T18:20:11.009Z,3.27
2019-03-26T18:25:35.914Z,3.00
2019-03-26T18:31:01.034Z,3.47
2019-03-26T18:36:25.602Z,3.10
2019-03-26T18:41:49.880Z,4.57
2019-03-26T18:47:14.085Z,4.10
2019-03-26T18:52:38.978Z,3.13
2019-03-26T18:58:03.783Z,3.20
2019-03-26T19:03:28.800Z,3.20
2019-03-26T19:08:53.945Z,3.53
2019-03-26T19:14:19.248Z,4.07
2019-03-26T19:19:43.890Z,3.47
2019-03-26T19:25:08.972Z,3.80
2019-03-26T19:30:34.094Z,3.40
2019-03-26T19:35:58.162Z,4.20
2019-03-26T19:41:22.427Z,3.57
2019-03-26T19:46:47.526Z,5.37
2019-03-26T19:52:11.963Z,4.97
2019-03-26T19:57:36.121Z,6.30
2019-03-26T20:03:00.285Z,5.83
2019-03-26T20:08:26.687Z,5.70
2019-03-26T20:13:51.423Z,5.47
2019-03-26T20:19:16.697Z,4.33
2019-03-26T20:24:41.967Z,4.50
2019-03-26T20:30:09.199Z,3.93
2019-03-26T20:35:34.159Z,4.50
2019-03-26T20:41:01.191Z,4.80
2019-03-26T20:46:26.449Z,4.33
2019-03-26T20:51:56.691Z,4.27
2019-03-26T20:57:21.247Z,4.47
2019-03-26T21:02:45.607Z,4.57
2019-03-26T21:08:10.984Z,3.97
2019-03-26T21:13:35.925Z,5.23
2019-03-26T21:19:00.382Z,5.53
2019-03-26T21:24:25.627Z,5.20
2019-03-26T21:29:50.523Z,4.33
2019-03-26T21:35:15.361Z,4.67
2019-03-26T21:40:40.646Z,4.63
2019-03-26T21:46:05.158Z,4.90
2019-03-26T21:51:29.208Z,4.37
2019-03-26T21:56:53.529Z,4.13
2019-03-26T22:02:18.072Z,5.17
2019-03-26T22:07:43.167Z,4.00
2019-03-26T22:13:07.524Z,4.17
2019-03-26T22:18:32.781Z,4.10
2019-03-26T22:23:58.436Z,4.13
2019-03-26T22:29:23.558Z,4.87
2019-03-26T22:34:49.111Z,4.63
2019-03-26T22:40:15.747Z,3.60
2019-03-26T22:45:40.854Z,4.20
2019-03-26T22:51:05.903Z,4.60
2019-03-26T22:56:31.271Z,4.17
2019-03-26T23:01:56.887Z,4.37
2019-03-26T23:07:21.385Z,4.10
2019-03-26T23:12:46.732Z,4.67
2019-03-26T23:18:16.599Z,5.00
2019-03-26T23:23:41.036Z,4.80
2019-03-26T23:29:08.067Z,3.93
2019-03-26T23:34:31.725Z,5.23
2019-03-26T23:39:56.126Z,4.30
2019-03-26T23:45:20.692Z,5.47
2019-03-26T23:50:45.485Z,4.97
2019-03-26T23:56:10.413Z,6.10
